Time;durP1;ratioP1;P1;durP2;ratioP2;P2;SDS_P1;SDS_P2;PMS_P1;PMS_P2;Temp;Humidity;BMP_temperature;BMP_pressure;BME280_temperature;BME280_humidity;BME280_pressure;Samples;Min_cycle;Max_cycle;Signal;HPM_P1;HPM_P2
2023/08/28 00:00:50;;;;;;;6.70;4.07;;;13.10;99.90;;;;;;5023366;28;20044;-73
2023/08/28 00:03:16;;;;;;;6.63;4.22;;;13.10;99.90;;;;;;5025197;28;20041;-76
2023/08/28 00:05:41;;;;;;;7.72;3.88;;;13.10;99.90;;;;;;5023558;28;20493;-74
2023/08/28 00:08:07;;;;;;;8.02;4.15;;;13.00;99.90;;;;;;5023921;28;20320;-76
2023/08/28 00:10:33;;;;;;;5.82;4.20;;;13.10;99.90;;;;;;5024130;28;20026;-75
2023/08/28 00:12:59;;;;;;;9.10;4.30;;;13.00;99.90;;;;;;5024989;28;20057;-75
2023/08/28 00:15:25;;;;;;;10.05;4.40;;;13.00;99.90;;;;;;5025406;28;20030;-76
2023/08/28 00:17:50;;;;;;;9.27;4.10;;;13.00;99.90;;;;;;5022387;28;20049;-74
2023/08/28 00:20:16;;;;;;;7.13;4.30;;;13.10;99.90;;;;;;5024790;28;20030;-75
2023/08/28 00:22:42;;;;;;;12.48;4.45;;;13.10;99.90;;;;;;5024779;28;20033;-74
2023/08/28 00:25:08;;;;;;;6.97;3.85;;;13.10;99.90;;;;;;5024756;28;20022;-73
2023/08/28 00:27:35;;;;;;;6.07;3.85;;;13.10;99.90;;;;;;5024850;28;20077;-75
2023/08/28 00:30:00;;;;;;;6.93;4.28;;;13.10;99.90;;;;;;5023627;28;20056;-74
2023/08/28 00:32:26;;;;;;;7.82;4.05;;;13.20;99.90;;;;;;5022705;28;20025;-75
2023/08/28 00:34:53;;;;;;;8.93;4.10;;;13.20;99.90;;;;;;5024400;28;20083;-75
2023/08/28 00:37:19;;;;;;;7.88;4.20;;;13.20;99.90;;;;;;5023638;28;20427;-75
2023/08/28 00:39:44;;;;;;;8.95;3.58;;;13.20;99.90;;;;;;5024772;28;20072;-75
2023/08/28 00:42:10;;;;;;;5.85;3.70;;;13.20;99.90;;;;;;5022847;28;20033;-72
2023/08/28 00:44:35;;;;;;;6.93;3.50;;;13.20;99.90;;;;;;5023351;28;20038;-73
2023/08/28 00:47:02;;;;;;;7.03;3.53;;;13.30;99.90;;;;;;5022899;28;20033;-76
2023/08/28 00:49:30;;;;;;;6.03;3.25;;;13.30;99.90;;;;;;5023282;28;20102;-74
2023/08/28 00:51:57;;;;;;;7.05;3.20;;;13.30;99.90;;;;;;5022227;28;20038;-74
2023/08/28 00:54:23;;;;;;;6.28;3.30;;;13.40;99.90;;;;;;5021688;28;20034;-72
2023/08/28 00:56:49;;;;;;;7.03;3.35;;;13.40;99.90;;;;;;5022557;28;20022;-72
2023/08/28 00:59:16;;;;;;;6.60;3.30;;;13.40;99.90;;;;;;5022000;28;20029;-77
2023/08/28 01:01:42;;;;;;;7.47;2.90;;;13.50;99.90;;;;;;5021916;28;20025;-76
2023/08/28 01:04:08;;;;;;;9.90;3.50;;;13.50;99.90;;;;;;5023547;28;20081;-75
2023/08/28 01:06:39;;;;;;;9.48;3.58;;;13.60;99.90;;;;;;5021537;28;20106;-75
2023/08/28 01:09:13;;;;;;;7.90;3.40;;;13.50;99.90;;;;;;5030753;28;20049;-73
2023/08/28 01:11:56;;;;;;;5.10;3.22;;;13.60;99.90;;;;;;5031195;28;20089;-76
2023/08/28 01:14:36;;;;;;;12.10;4.30;;;13.60;99.90;;;;;;5022470;28;20037;-74
2023/08/28 01:17:06;;;;;;;9.77;5.05;;;13.60;99.90;;;;;;5023967;28;20034;-78
2023/08/28 01:19:42;;;;;;;12.35;5.43;;;13.50;99.90;;;;;;5024162;28;20517;-78
2023/08/28 01:22:29;;;;;;;9.10;5.40;;;13.50;99.90;;;;;;5023056;28;20055;-77
2023/08/28 01:25:09;;;;;;;12.93;5.80;;;13.50;99.90;;;;;;5022594;28;20049;-77
2023/08/28 01:27:37;;;;;;;12.27;5.85;;;13.40;99.90;;;;;;5023478;28;20064;-79
2023/08/28 01:30:13;;;;;;;11.10;5.90;;;13.40;99.90;;;;;;5023661;28;20022;-76
2023/08/28 01:32:42;;;;;;;12.70;5.78;;;13.30;99.90;;;;;;5023475;28;20030;-76
2023/08/28 01:35:29;;;;;;;10.20;6.20;;;13.30;99.90;;;;;;5022135;28;20042;-74
2023/08/28 01:38:19;;;;;;;10.30;5.75;;;13.20;99.90;;;;;;5023104;28;20022;-75
2023/08/28 01:41:09;;;;;;;10.98;5.53;;;13.20;99.90;;;;;;5023226;28;20017;-76
2023/08/28 01:43:38;;;;;;;17.17;6.45;;;13.20;99.90;;;;;;5021144;28;20038;-75
2023/08/28 01:46:04;;;;;;;11.60;5.80;;;13.10;99.90;;;;;;5022078;28;20103;-78
2023/08/28 01:48:35;;;;;;;13.65;6.00;;;13.10;99.90;;;;;;5022984;28;20018;-74
2023/08/28 01:51:01;;;;;;;14.13;6.30;;;13.00;99.90;;;;;;5023335;28;20037;-78
2023/08/28 01:53:26;;;;;;;14.32;6.35;;;13.00;99.90;;;;;;5022962;28;20022;-76
2023/08/28 01:56:15;;;;;;;9.93;5.90;;;13.00;99.90;;;;;;5023181;28;20026;-78
2023/08/28 01:58:56;;;;;;;10.13;6.03;;;13.00;99.90;;;;;;5021781;28;20038;-76
2023/08/28 02:01:26;;;;;;;12.35;5.85;;;13.00;99.90;;;;;;5021801;28;20057;-76
2023/08/28 02:03:52;;;;;;;10.05;6.03;;;13.00;99.90;;;;;;5037595;28;20041;-76
2023/08/28 02:06:18;;;;;;;13.75;6.15;;;13.00;99.90;;;;;;5022970;28;20034;-77
2023/08/28 02:08:44;;;;;;;12.15;5.95;;;12.90;99.90;;;;;;5023023;28;20036;-76
2023/08/28 02:11:10;;;;;;;12.52;6.43;;;12.90;99.90;;;;;;5021281;28;20133;-77
2023/08/28 02:13:36;;;;;;;14.25;6.30;;;12.90;99.90;;;;;;5021717;28;20030;-75
2023/08/28 02:16:02;;;;;;;12.80;5.85;;;12.90;99.90;;;;;;5020954;28;20026;-79
2023/08/28 02:18:28;;;;;;;10.57;6.70;;;12.90;99.90;;;;;;5022055;28;20021;-79
2023/08/28 02:20:54;;;;;;;11.00;6.50;;;12.90;99.90;;;;;;5021562;28;20026;-78
2023/08/28 02:23:19;;;;;;;13.07;6.50;;;12.90;99.90;;;;;;5021727;28;20041;-79
2023/08/28 02:25:47;;;;;;;11.65;6.57;;;12.90;99.90;;;;;;5022238;28;20022;-77
2023/08/28 02:28:13;;;;;;;11.52;7.07;;;12.90;99.90;;;;;;5020960;28;20088;-78
2023/08/28 02:30:39;;;;;;;11.82;6.60;;;12.80;99.90;;;;;;5020917;28;20479;-80
2023/08/28 02:33:05;;;;;;;10.68;6.60;;;12.80;99.90;;;;;;5021084;28;20018;-79
2023/08/28 02:35:30;;;;;;;11.57;7.03;;;12.90;99.90;;;;;;5022564;28;20046;-78
2023/08/28 02:37:56;;;;;;;15.88;7.80;;;12.80;99.90;;;;;;5021557;28;20092;-80
2023/08/28 02:40:21;;;;;;;12.40;7.28;;;12.80;99.90;;;;;;5021143;28;21391;-76
2023/08/28 02:42:47;;;;;;;12.57;7.95;;;12.80;99.90;;;;;;5020668;28;20868;-76
2023/08/28 02:45:13;;;;;;;13.10;8.10;;;12.80;99.90;;;;;;5020599;28;20022;-77
2023/08/28 02:47:38;;;;;;;14.80;7.85;;;12.80;99.90;;;;;;5022076;28;20041;-79
2023/08/28 02:50:04;;;;;;;18.00;8.63;;;12.80;99.90;;;;;;5021061;28;20057;-81
2023/08/28 02:52:30;;;;;;;13.52;8.73;;;12.70;99.90;;;;;;5020792;28;20045;-80
2023/08/28 02:54:56;;;;;;;15.82;9.00;;;12.80;99.90;;;;;;5022414;28;20026;-81
2023/08/28 02:57:22;;;;;;;16.63;8.95;;;12.80;99.90;;;;;;5020781;28;20030;-76
2023/08/28 02:59:47;;;;;;;19.42;9.55;;;12.70;99.90;;;;;;5020205;28;20014;-76
2023/08/28 03:02:13;;;;;;;13.75;9.27;;;12.80;99.90;;;;;;5021952;28;20089;-82
2023/08/28 03:04:41;;;;;;;17.98;9.98;;;12.70;99.90;;;;;;5020430;28;20070;-81
2023/08/28 03:07:07;;;;;;;18.98;9.20;;;12.70;99.90;;;;;;5019801;28;20446;-75
2023/08/28 03:09:32;;;;;;;19.02;10.35;;;12.80;99.90;;;;;;5022101;28;20034;-79
2023/08/28 03:11:58;;;;;;;16.30;10.73;;;12.70;99.90;;;;;;5020901;28;20446;-76
2023/08/28 03:14:24;;;;;;;17.83;9.95;;;12.80;99.90;;;;;;5021422;28;20034;-80
2023/08/28 03:16:49;;;;;;;18.48;10.15;;;12.70;99.90;;;;;;5021733;28;20037;-79
2023/08/28 03:19:15;;;;;;;17.25;9.90;;;12.80;99.90;;;;;;5021954;28;20041;-76
2023/08/28 03:21:40;;;;;;;14.43;9.50;;;12.70;99.90;;;;;;5020066;28;20075;-77
2023/08/28 03:24:06;;;;;;;17.30;9.82;;;12.70;99.90;;;;;;5021714;28;20041;-76
2023/08/28 03:26:33;;;;;;;17.20;9.75;;;12.70;99.90;;;;;;5021678;28;20029;-79
2023/08/28 03:28:59;;;;;;;18.65;10.35;;;12.70;99.90;;;;;;5021197;28;20052;-77
2023/08/28 03:31:26;;;;;;;16.13;9.95;;;12.70;99.90;;;;;;5021281;28;20025;-73
2023/08/28 03:33:51;;;;;;;17.58;9.80;;;12.70;99.90;;;;;;5021263;28;20088;-76
2023/08/28 03:36:17;;;;;;;15.10;9.65;;;12.60;99.90;;;;;;5021179;28;20109;-76
2023/08/28 03:38:43;;;;;;;18.67;10.57;;;12.70;99.90;;;;;;5020286;28;20029;-78
2023/08/28 03:41:09;;;;;;;13.02;8.70;;;12.70;99.90;;;;;;5019954;28;20026;-72
2023/08/28 03:43:35;;;;;;;15.88;9.60;;;12.70;99.90;;;;;;5020894;28;20451;-76
2023/08/28 03:46:01;;;;;;;14.30;9.10;;;12.60;99.90;;;;;;5019959;28;20041;-76
2023/08/28 03:48:26;;;;;;;18.52;10.15;;;12.60;99.90;;;;;;5020153;28;20021;-74
2023/08/28 03:50:52;;;;;;;15.23;9.80;;;12.60;99.90;;;;;;5021553;28;20026;-77
2023/08/28 03:53:18;;;;;;;19.60;9.75;;;12.60;99.90;;;;;;5020128;28;20026;-76
2023/08/28 03:55:43;;;;;;;16.55;9.02;;;12.60;99.90;;;;;;5021105;28;20029;-77
2023/08/28 03:58:09;;;;;;;16.10;9.38;;;12.60;99.90;;;;;;5019726;28;20026;-74
2023/08/28 04:00:35;;;;;;;16.67;10.00;;;12.60;99.90;;;;;;5020209;28;20042;-76
2023/08/28 04:03:00;;;;;;;16.92;9.75;;;12.60;99.90;;;;;;5021291;28;20529;-75
2023/08/28 04:05:32;;;;;;;18.55;10.30;;;12.60;99.90;;;;;;5021447;28;20025;-75
2023/08/28 04:07:58;;;;;;;19.77;9.50;;;12.60;99.90;;;;;;5021580;28;20022;-74
2023/08/28 04:10:24;;;;;;;18.17;9.73;;;12.50;99.90;;;;;;5019754;28;20441;-75
2023/08/28 04:12:49;;;;;;;18.75;9.90;;;12.50;99.90;;;;;;5019843;28;20022;-75
2023/08/28 04:15:15;;;;;;;19.20;9.85;;;12.50;99.90;;;;;;5019920;28;20415;-76
2023/08/28 04:17:41;;;;;;;17.15;10.23;;;12.50;99.90;;;;;;5019108;28;20393;-76
2023/08/28 04:20:14;;;;;;;20.98;10.30;;;12.50;99.90;;;;;;5021268;28;20080;-75
2023/08/28 04:22:46;;;;;;;20.95;10.45;;;12.50;99.90;;;;;;5036139;28;20089;-74
2023/08/28 04:25:13;;;;;;;19.95;9.82;;;12.50;99.90;;;;;;5019725;28;20042;-73
2023/08/28 04:27:40;;;;;;;20.75;10.65;;;12.40;99.90;;;;;;5019357;28;20080;-77
2023/08/28 04:30:07;;;;;;;16.58;9.95;;;12.40;99.90;;;;;;5019405;28;20034;-77
2023/08/28 04:32:33;;;;;;;19.02;10.45;;;12.40;99.90;;;;;;5018832;28;20441;-75
2023/08/28 04:34:59;;;;;;;14.30;10.57;;;12.40;99.90;;;;;;5019649;28;20049;-76
2023/08/28 04:37:25;;;;;;;18.73;11.27;;;12.40;99.90;;;;;;5020805;28;20045;-76
2023/08/28 04:39:51;;;;;;;19.10;10.90;;;12.40;99.90;;;;;;5018027;28;20065;-79
2023/08/28 04:42:16;;;;;;;19.63;11.32;;;12.40;99.90;;;;;;5022010;28;20021;-74
2023/08/28 04:44:42;;;;;;;20.55;10.77;;;12.50;99.90;;;;;;5023209;28;20038;-74
2023/08/28 04:47:08;;;;;;;14.00;9.80;;;12.30;99.90;;;;;;5022899;28;20502;-74
2023/08/28 04:49:34;;;;;;;18.05;9.70;;;12.40;99.90;;;;;;5024661;28;20022;-76
2023/08/28 04:51:59;;;;;;;20.85;10.77;;;12.40;99.90;;;;;;5023235;28;20068;-75
2023/08/28 04:54:25;;;;;;;19.38;10.73;;;12.40;99.90;;;;;;5022790;28;20061;-75
2023/08/28 04:56:50;;;;;;;18.92;10.70;;;12.40;99.90;;;;;;5024180;28;20029;-74
2023/08/28 04:59:16;;;;;;;21.15;11.55;;;12.40;99.90;;;;;;5024150;28;20136;-74
2023/08/28 05:01:42;;;;;;;17.17;10.38;;;12.40;99.90;;;;;;5021287;28;20106;-76
2023/08/28 05:04:07;;;;;;;17.15;9.60;;;12.40;99.90;;;;;;5021837;28;20042;-74
2023/08/28 05:06:33;;;;;;;19.25;10.93;;;12.50;99.90;;;;;;5022055;28;20062;-74
2023/08/28 05:08:59;;;;;;;19.80;10.57;;;12.50;99.90;;;;;;5023920;28;20089;-76
2023/08/28 05:11:25;;;;;;;21.33;10.63;;;12.40;99.90;;;;;;5022830;28;20102;-74
2023/08/28 05:13:52;;;;;;;20.15;11.38;;;12.50;99.90;;;;;;5022869;28;20046;-77
2023/08/28 05:16:17;;;;;;;21.83;10.77;;;12.50;99.90;;;;;;5022417;28;20029;-75
2023/08/28 05:18:43;;;;;;;16.75;10.50;;;12.50;99.90;;;;;;5023219;28;20026;-78
2023/08/28 05:21:08;;;;;;;24.73;12.02;;;12.50;99.90;;;;;;5021457;28;20034;-75
2023/08/28 05:23:34;;;;;;;18.10;10.55;;;12.50;99.90;;;;;;5018666;28;20039;-75
2023/08/28 05:26:00;;;;;;;21.80;10.93;;;12.50;99.90;;;;;;5022988;28;20049;-74
2023/08/28 05:28:26;;;;;;;19.33;10.68;;;12.60;99.90;;;;;;5021000;28;20022;-75
2023/08/28 05:30:59;;;;;;;17.85;10.20;;;12.60;99.90;;;;;;5023602;28;20053;-76
2023/08/28 05:33:24;;;;;;;20.05;9.98;;;12.60;99.90;;;;;;5021839;28;20076;-74
2023/08/28 05:35:50;;;;;;;18.88;10.48;;;12.60;99.90;;;;;;5022627;28;20097;-75
2023/08/28 05:38:16;;;;;;;18.63;10.32;;;12.70;99.90;;;;;;5022426;28;20091;-75
2023/08/28 05:40:41;;;;;;;17.50;9.70;;;12.70;99.90;;;;;;5018751;28;20454;-75
2023/08/28 05:43:07;;;;;;;17.08;10.43;;;12.70;99.90;;;;;;5022260;28;20025;-74
2023/08/28 05:45:33;;;;;;;15.43;9.20;;;12.70;99.90;;;;;;5021598;28;20052;-73
2023/08/28 05:47:59;;;;;;;14.80;9.80;;;12.80;99.90;;;;;;5022651;28;20034;-76
2023/08/28 05:50:28;;;;;;;14.93;8.95;;;12.90;99.90;;;;;;5023674;28;20692;-77
2023/08/28 05:52:54;;;;;;;17.05;9.85;;;12.80;99.90;;;;;;5022562;28;20033;-76
2023/08/28 05:55:19;;;;;;;15.20;9.32;;;12.90;99.90;;;;;;5022932;28;20501;-74
2023/08/28 05:57:45;;;;;;;17.98;9.68;;;12.90;99.90;;;;;;5021778;28;20030;-76
2023/08/28 06:00:14;;;;;;;19.70;9.43;;;13.00;99.90;;;;;;5023061;28;20030;-73
2023/08/28 06:02:40;;;;;;;17.85;9.90;;;13.00;99.90;;;;;;5018715;28;20061;-80
2023/08/28 06:05:06;;;;;;;15.10;8.95;;;13.00;99.90;;;;;;5022272;28;20102;-75
2023/08/28 06:07:32;;;;;;;15.77;8.98;;;13.00;99.90;;;;;;5021983;28;20026;-78
2023/08/28 06:09:58;;;;;;;18.25;9.05;;;13.10;99.90;;;;;;5021002;28;20109;-74
2023/08/28 06:12:24;;;;;;;14.00;8.50;;;13.10;99.90;;;;;;5021265;28;20057;-73
2023/08/28 06:14:50;;;;;;;13.93;8.45;;;13.20;99.90;;;;;;5023011;28;20014;-72
2023/08/28 06:17:16;;;;;;;13.95;8.55;;;13.20;99.90;;;;;;5022579;28;20041;-74
2023/08/28 06:19:42;;;;;;;16.85;8.60;;;13.20;99.90;;;;;;5028022;28;20034;-75
2023/08/28 06:22:07;;;;;;;12.18;8.48;;;13.30;99.90;;;;;;5021057;28;20039;-75
2023/08/28 06:24:33;;;;;;;15.60;8.00;;;13.30;99.90;;;;;;5020900;28;20070;-75
2023/08/28 06:27:00;;;;;;;15.45;8.63;;;13.40;99.90;;;;;;5021707;28;20025;-73
2023/08/28 06:29:25;;;;;;;15.35;8.43;;;13.40;99.90;;;;;;5019823;28;20034;-74
2023/08/28 06:32:00;;;;;;;13.38;7.68;;;13.40;99.90;;;;;;5020544;28;20049;-72
2023/08/28 06:34:26;;;;;;;16.35;8.88;;;13.50;99.90;;;;;;5022003;28;20038;-73
2023/08/28 06:36:52;;;;;;;14.30;8.35;;;13.60;99.90;;;;;;5020288;28;20398;-73
2023/08/28 06:39:18;;;;;;;13.75;8.63;;;13.60;99.90;;;;;;5020776;28;20026;-75
2023/08/28 06:41:44;;;;;;;12.88;9.10;;;13.70;99.90;;;;;;5021872;28;20105;-73
2023/08/28 06:44:09;;;;;;;12.40;9.00;;;13.70;99.90;;;;;;5021695;28;20034;-73
2023/08/28 06:46:36;;;;;;;17.60;9.77;;;13.70;99.90;;;;;;5022238;28;20028;-72
2023/08/28 06:49:03;;;;;;;15.50;10.23;;;13.80;99.90;;;;;;5020119;28;20098;-76
2023/08/28 06:51:32;;;;;;;18.15;9.40;;;13.80;99.90;;;;;;5022211;28;20049;-76
2023/08/28 06:54:00;;;;;;;16.88;10.35;;;13.80;99.90;;;;;;5021346;28;20030;-76
2023/08/28 06:56:25;;;;;;;14.18;8.90;;;13.90;99.90;;;;;;5020700;28;20033;-73
2023/08/28 06:58:51;;;;;;;16.17;9.80;;;13.90;99.90;;;;;;5019219;28;20415;-75
2023/08/28 07:01:16;;;;;;;17.98;10.45;;;14.00;99.90;;;;;;5018851;28;20030;-73
2023/08/28 07:03:42;;;;;;;17.83;10.63;;;14.00;99.90;;;;;;5018016;28;20038;-74
2023/08/28 07:06:07;;;;;;;13.70;9.65;;;14.00;99.90;;;;;;5019905;28;20052;-72
2023/08/28 07:08:33;;;;;;;19.70;9.60;;;14.10;99.90;;;;;;5020720;28;20042;-78
2023/08/28 07:10:59;;;;;;;19.33;9.65;;;14.10;99.90;;;;;;5019627;28;20057;-73
2023/08/28 07:13:24;;;;;;;14.32;10.07;;;14.20;99.90;;;;;;5021753;28;20061;-76
2023/08/28 07:15:50;;;;;;;18.13;9.65;;;14.20;99.90;;;;;;5018028;28;20026;-73
2023/08/28 07:18:16;;;;;;;14.32;9.77;;;14.20;99.90;;;;;;5018966;28;20026;-73
2023/08/28 07:20:43;;;;;;;17.38;9.70;;;14.30;99.90;;;;;;5021392;28;20094;-72
2023/08/28 07:23:09;;;;;;;21.50;9.50;;;14.40;99.90;;;;;;5020448;28;20105;-75
2023/08/28 07:25:34;;;;;;;13.48;8.77;;;14.50;99.90;;;;;;5020928;28;20026;-74
2023/08/28 07:28:00;;;;;;;18.73;10.25;;;14.50;99.90;;;;;;5021581;28;20029;-73
2023/08/28 07:30:26;;;;;;;16.25;9.25;;;14.60;99.90;;;;;;5018224;28;20030;-74
2023/08/28 07:32:51;;;;;;;16.00;9.93;;;14.60;99.90;;;;;;5014741;28;20026;-74
2023/08/28 07:35:17;;;;;;;19.10;9.50;;;14.70;99.90;;;;;;5025803;28;20072;-73
2023/08/28 07:37:44;;;;;;;15.73;9.85;;;14.80;99.90;;;;;;5020422;28;20030;-73
2023/08/28 07:40:10;;;;;;;17.90;9.50;;;14.90;99.90;;;;;;5020014;28;20442;-75
2023/08/28 07:42:36;;;;;;;19.70;9.30;;;14.90;99.90;;;;;;5021476;28;20025;-76
2023/08/28 07:45:04;;;;;;;14.82;9.38;;;15.00;99.90;;;;;;5020278;28;20050;-74
2023/08/28 07:47:30;;;;;;;16.88;9.60;;;15.00;99.90;;;;;;5020168;28;20525;-73
2023/08/28 07:49:56;;;;;;;16.10;8.60;;;15.10;99.90;;;;;;5017760;28;20038;-73
2023/08/28 07:52:22;;;;;;;13.43;8.85;;;15.20;99.90;;;;;;5027241;28;20037;-73
2023/08/28 07:54:47;;;;;;;12.93;7.57;;;15.20;99.90;;;;;;5019224;28;20045;-73
2023/08/28 07:57:13;;;;;;;13.73;7.85;;;15.30;99.90;;;;;;5019855;28;20038;-73
2023/08/28 07:59:41;;;;;;;14.70;8.50;;;15.40;99.90;;;;;;5018976;28;20116;-75
2023/08/28 08:02:09;;;;;;;13.45;8.02;;;15.50;99.90;;;;;;5018159;28;20085;-72
2023/08/28 08:04:36;;;;;;;13.20;8.25;;;15.60;99.90;;;;;;5017630;28;20073;-75
2023/08/28 08:07:01;;;;;;;12.35;7.03;;;15.60;99.90;;;;;;5016677;28;20033;-74
2023/08/28 08:09:27;;;;;;;12.52;7.90;;;15.60;99.90;;;;;;5019283;28;20144;-74
2023/08/28 08:11:52;;;;;;;13.20;7.90;;;15.70;99.90;;;;;;5016922;28;20064;-75
2023/08/28 08:14:19;;;;;;;14.40;7.80;;;15.80;99.90;;;;;;5020541;28;20030;-73
2023/08/28 08:16:44;;;;;;;14.05;8.05;;;15.90;99.90;;;;;;5022970;28;20490;-73
2023/08/28 08:19:11;;;;;;;14.43;7.88;;;16.00;99.90;;;;;;5024001;28;20088;-73
2023/08/28 08:21:36;;;;;;;11.05;7.40;;;16.10;99.90;;;;;;5023884;28;20096;-72
2023/08/28 08:24:02;;;;;;;9.70;6.43;;;16.20;99.90;;;;;;5024175;28;20043;-74
2023/08/28 08:26:28;;;;;;;9.10;5.97;;;16.30;99.90;;;;;;5023563;28;20033;-74
2023/08/28 08:28:57;;;;;;;12.45;4.70;;;16.50;99.90;;;;;;5022435;28;20045;-76
2023/08/28 08:31:23;;;;;;;6.03;3.55;;;16.60;99.90;;;;;;5022123;28;20026;-75
2023/08/28 08:33:48;;;;;;;7.47;4.70;;;16.70;99.90;;;;;;5021969;28;20041;-74
2023/08/28 08:36:17;;;;;;;8.88;4.68;;;16.80;99.90;;;;;;5028774;28;20032;-75
2023/08/28 08:38:43;;;;;;;7.47;4.00;;;16.90;99.90;;;;;;5039277;28;20083;-74
2023/08/28 08:41:10;;;;;;;7.70;4.25;;;17.00;99.90;;;;;;5024392;28;20056;-74
2023/08/28 08:43:35;;;;;;;6.45;4.00;;;17.10;99.90;;;;;;5022092;28;20049;-74
2023/08/28 08:46:07;;;;;;;8.63;3.67;;;17.20;99.90;;;;;;5024458;28;20030;-76
2023/08/28 08:48:36;;;;;;;6.07;3.35;;;17.30;99.90;;;;;;5023224;28;20076;-74
2023/08/28 08:51:06;;;;;;;7.90;3.70;;;17.30;99.90;;;;;;5023202;28;20030;-75
2023/08/28 08:53:55;;;;;;;9.30;4.43;;;17.50;99.90;;;;;;5024014;28;20104;-76
2023/08/28 08:56:23;;;;;;;8.98;3.80;;;17.70;99.90;;;;;;5021465;28;20041;-76
2023/08/28 08:58:50;;;;;;;9.32;3.88;;;17.80;99.90;;;;;;5023372;28;20041;-79
2023/08/28 09:01:16;;;;;;;6.97;3.97;;;17.80;99.90;;;;;;5022107;28;20026;-78
2023/08/28 09:03:43;;;;;;;5.32;2.92;;;17.70;99.90;;;;;;5021642;28;20038;-76
2023/08/28 09:06:10;;;;;;;5.97;2.90;;;17.60;99.90;;;;;;5021941;28;20504;-74
2023/08/28 09:08:38;;;;;;;8.15;3.40;;;17.60;99.90;;;;;;5019368;28;20652;-77
2023/08/28 09:11:08;;;;;;;10.90;3.50;;;17.50;99.90;;;;;;5023716;28;20478;-75
2023/08/28 09:13:43;;;;;;;6.90;3.47;;;17.60;99.90;;;;;;5022593;28;20426;-76
2023/08/28 09:16:09;;;;;;;5.47;3.10;;;17.60;99.90;;;;;;5023129;28;20037;-74
2023/08/28 09:18:35;;;;;;;6.63;2.75;;;17.60;99.90;;;;;;5021998;28;20034;-75
2023/08/28 09:21:11;;;;;;;4.80;3.03;;;17.60;99.90;;;;;;5020925;28;20521;-77
2023/08/28 09:23:44;;;;;;;4.95;2.33;;;17.70;99.90;;;;;;5021297;28;20048;-74
2023/08/28 09:26:21;;;;;;;4.63;1.70;;;17.60;99.90;;;;;;5021925;28;20033;-77
2023/08/28 09:29:06;;;;;;;3.92;1.80;;;17.70;99.90;;;;;;5021511;28;20113;-75
2023/08/28 09:31:36;;;;;;;6.03;1.90;;;17.90;99.90;;;;;;5022481;28;20022;-74
2023/08/28 09:34:03;;;;;;;4.00;2.10;;;17.90;99.90;;;;;;5021563;28;20057;-77
2023/08/28 09:36:36;;;;;;;3.70;1.88;;;18.00;99.90;;;;;;5020047;28;20037;-79
2023/08/28 09:39:04;;;;;;;6.13;2.20;;;18.00;99.90;;;;;;5020384;28;20034;-75
2023/08/28 09:41:36;;;;;;;6.80;1.75;;;18.10;99.90;;;;;;5019132;28;20030;-74
2023/08/28 09:44:03;;;;;;;12.10;2.63;;;18.30;99.90;;;;;;5020126;28;20154;-75
2023/08/28 09:46:30;;;;;;;7.88;2.20;;;18.40;99.90;;;;;;5020631;28;20033;-75
2023/08/28 09:48:55;;;;;;;3.17;1.98;;;18.50;99.90;;;;;;5022802;28;20102;-74
2023/08/28 09:51:21;;;;;;;6.10;1.52;;;18.60;99.90;;;;;;5021932;28;20053;-78
2023/08/28 09:53:59;;;;;;;6.53;1.83;;;18.50;99.90;;;;;;5018228;28;20037;-75
2023/08/28 09:56:32;;;;;;;6.25;1.60;;;18.50;99.90;;;;;;5012531;28;20033;-74
2023/08/28 09:59:00;;;;;;;5.93;1.60;;;18.50;99.90;;;;;;5019796;28;20026;-78
2023/08/28 10:01:29;;;;;;;7.03;1.65;;;18.50;99.90;;;;;;5019136;28;20042;-75
2023/08/28 10:04:10;;;;;;;6.68;1.70;;;18.60;99.90;;;;;;5024561;28;20041;-73
2023/08/28 10:06:39;;;;;;;3.25;1.20;;;18.70;99.90;;;;;;5021058;28;20022;-73
2023/08/28 10:09:18;;;;;;;2.78;0.93;;;18.80;99.90;;;;;;5021136;28;20045;-74
2023/08/28 10:11:45;;;;;;;6.60;1.50;;;18.90;99.90;;;;;;5019103;28;20037;-73
2023/08/28 10:14:12;;;;;;;3.97;1.25;;;18.90;99.90;;;;;;5018984;28;20045;-71
2023/08/28 10:17:02;;;;;;;5.40;1.33;;;19.00;99.90;;;;;;5015986;28;20021;-76
2023/08/28 10:19:43;;;;;;;7.38;1.20;;;19.00;99.90;;;;;;5016505;28;20033;-73
2023/08/28 10:22:09;;;;;;;3.50;0.88;;;19.00;99.90;;;;;;5020428;28;20101;-72
2023/08/28 10:24:39;;;;;;;2.80;1.20;;;19.10;99.90;;;;;;5020713;28;20070;-74
2023/08/28 10:27:11;;;;;;;2.50;1.00;;;19.10;99.90;;;;;;5020442;28;20022;-73
2023/08/28 10:29:41;;;;;;;3.47;1.10;;;19.20;99.90;;;;;;5018946;28;20023;-76
2023/08/28 10:32:09;;;;;;;2.25;0.85;;;19.20;99.90;;;;;;5015252;28;20053;-77
2023/08/28 10:34:39;;;;;;;3.20;1.00;;;19.30;99.90;;;;;;5021582;28;20060;-73
2023/08/28 10:37:09;;;;;;;4.63;0.98;;;19.40;99.90;;;;;;5017868;28;20117;-80
2023/08/28 10:39:40;;;;;;;1.92;0.90;;;19.50;99.90;;;;;;5020484;28;20054;-72
2023/08/28 10:42:11;;;;;;;1.92;0.70;;;19.60;99.90;;;;;;5021837;28;20021;-73
2023/08/28 10:44:38;;;;;;;2.47;1.05;;;19.70;99.90;;;;;;5018801;28;20544;-75
2023/08/28 10:47:05;;;;;;;1.92;0.90;;;19.70;99.90;;;;;;5020991;28;20045;-73
2023/08/28 10:49:33;;;;;;;4.65;0.90;;;19.80;99.90;;;;;;5019167;28;20084;-73
2023/08/28 10:52:06;;;;;;;1.52;0.80;;;19.90;99.90;;;;;;5021760;28;20025;-79
2023/08/28 10:54:40;;;;;;;3.17;0.77;;;20.10;99.90;;;;;;5019493;28;20038;-75
2023/08/28 10:57:10;;;;;;;;;;;20.20;99.90;;;;;;5022207;28;20080;-79
2023/08/28 10:59:43;;;;;;;4.15;0.80;;;20.10;99.90;;;;;;5018613;28;19909;-76
2023/08/28 11:02:09;;;;;;;4.22;0.77;;;20.20;99.90;;;;;;5034233;28;20037;-72
2023/08/28 11:04:39;;;;;;;1.60;0.70;;;20.20;99.90;;;;;;5016278;28;20136;-72
2023/08/28 11:07:09;;;;;;;2.58;0.90;;;20.30;99.90;;;;;;5019467;28;20030;-74
2023/08/28 11:09:36;;;;;;;3.92;0.90;;;20.40;99.90;;;;;;5019028;28;20026;-72
2023/08/28 11:12:11;;;;;;;3.65;0.90;;;20.50;99.90;;;;;;5018453;28;20041;-77
2023/08/28 11:14:53;;;;;;;2.30;0.60;;;20.60;99.90;;;;;;5019525;28;20033;-74
2023/08/28 11:17:20;;;;;;;3.50;0.73;;;20.50;99.90;;;;;;5019653;28;20026;-78
2023/08/28 11:20:07;;;;;;;3.78;0.80;;;20.40;99.90;;;;;;5017936;28;20029;-73
2023/08/28 11:22:36;;;;;;;6.15;1.00;;;20.50;99.90;;;;;;5020431;28;20018;-73
2023/08/28 11:25:05;;;;;;;2.53;0.90;;;20.60;99.90;;;;;;5020094;28;20478;-73
2023/08/28 11:27:53;;;;;;;2.80;0.80;;;20.50;99.90;;;;;;5020853;28;20040;-72
2023/08/28 11:30:20;;;;;;;1.48;0.60;;;20.50;99.90;;;;;;5018915;28;20066;-77
2023/08/28 11:32:53;;;;;;;3.35;0.90;;;20.60;99.90;;;;;;5019884;28;20037;-74
2023/08/28 11:35:23;;;;;;;4.55;0.88;;;20.70;99.90;;;;;;5016563;28;20038;-74
2023/08/28 11:37:51;;;;;;;7.13;1.20;;;20.90;99.90;;;;;;5019659;28;20125;-75
2023/08/28 11:40:21;;;;;;;5.53;0.93;;;20.80;99.90;;;;;;5018557;28;20040;-72
2023/08/28 11:42:48;;;;;;;2.15;1.10;;;20.50;99.90;;;;;;5020301;28;20033;-75
2023/08/28 11:45:22;;;;;;;4.20;1.00;;;20.20;99.90;;;;;;5018530;28;20045;-73
2023/08/28 11:47:48;;;;;;;1.17;0.83;;;20.30;99.90;;;;;;5018173;28;20372;-73
2023/08/28 11:50:13;;;;;;;1.10;0.77;;;20.30;99.90;;;;;;5024222;28;20265;-75
2023/08/28 11:52:39;;;;;;;2.40;0.80;;;20.40;99.90;;;;;;5026098;28;20934;-75
2023/08/28 11:55:06;;;;;;;3.60;1.00;;;20.50;99.90;;;;;;5025912;28;20058;-78
2023/08/28 11:57:33;;;;;;;2.30;0.80;;;20.50;99.90;;;;;;5025531;28;20037;-74
2023/08/28 12:00:04;;;;;;;3.03;0.90;;;20.60;99.90;;;;;;5025390;28;20120;-75
2023/08/28 12:02:30;;;;;;;3.20;0.90;;;20.70;99.90;;;;;;5027516;28;20463;-74
2023/08/28 12:04:56;;;;;;;3.60;0.90;;;20.70;99.90;;;;;;5027006;28;20498;-72
2023/08/28 12:07:27;;;;;;;5.75;1.05;;;20.90;99.90;;;;;;5026721;28;20033;-72
2023/08/28 12:09:54;;;;;;;3.42;0.80;;;21.00;99.90;;;;;;5027095;28;20045;-77
2023/08/28 12:12:21;;;;;;;2.80;0.90;;;21.20;99.90;;;;;;5026449;28;20118;-72
2023/08/28 12:14:49;;;;;;;4.97;0.88;;;21.30;99.90;;;;;;5025490;28;20026;-74
2023/08/28 12:17:16;;;;;;;1.02;0.40;;;21.50;99.90;;;;;;5026715;28;20104;-71
2023/08/28 12:19:42;;;;;;;2.05;0.60;;;21.60;99.90;;;;;;5026456;28;20025;-74
2023/08/28 12:22:10;;;;;;;1.70;0.50;;;21.60;99.90;;;;;;5025201;28;20029;-70
2023/08/28 12:24:46;;;;;;;2.95;0.60;;;21.70;99.90;;;;;;5026567;28;20049;-74
2023/08/28 12:27:13;;;;;;;2.20;0.50;;;21.90;99.90;;;;;;5026763;28;20018;-73
2023/08/28 12:29:41;;;;;;;1.75;0.50;;;22.00;99.90;;;;;;5025256;28;20025;-70
2023/08/28 12:32:17;;;;;;;2.10;0.50;;;22.00;99.90;;;;;;5026663;28;20024;-69
2023/08/28 12:34:44;;;;;;;1.13;0.40;;;22.30;99.90;;;;;;5023537;28;20073;-69
2023/08/28 12:37:11;;;;;;;3.92;0.68;;;22.50;99.90;;;;;;5025608;28;20089;-75
2023/08/28 12:39:57;;;;;;;1.80;0.50;;;22.70;99.90;;;;;;5026019;28;20133;-71
2023/08/28 12:42:23;;;;;;;2.50;0.70;;;23.00;99.90;;;;;;5025717;28;20053;-71
2023/08/28 12:44:48;;;;;;;1.17;0.50;;;23.00;99.90;;;;;;5025398;28;20430;-74